createdAt,value
2022-12-29T00:00:49.420Z,0.00
2022-12-29T00:01:50.496Z,0.00
2022-12-29T00:02:50.497Z,0.00
2022-12-29T00:04:14.565Z,0.00
2022-12-29T00:04:51.365Z,0.00
2022-12-29T00:05:50.163Z,0.00
2022-12-29T00:06:49.388Z,0.00
2022-12-29T00:07:49.506Z,0.00
2022-12-29T00:08:50.124Z,0.00
2022-12-29T00:09:50.594Z,0.00
2022-12-29T00:10:50.272Z,0.00
2022-12-29T00:11:49.388Z,0.00
2022-12-29T00:12:49.384Z,0.00
2022-12-29T00:14:09.670Z,0.00
2022-12-29T00:14:49.988Z,0.00
2022-12-29T00:15:50.367Z,0.00
2022-12-29T00:16:50.081Z,0.00
2022-12-29T00:17:49.403Z,0.00
2022-12-29T00:18:50.181Z,0.00
2022-12-29T00:19:50.012Z,0.00
2022-12-29T00:20:49.803Z,0.00
2022-12-29T00:21:50.094Z,0.00
2022-12-29T00:22:49.979Z,0.00
2022-12-29T00:24:09.739Z,0.00
2022-12-29T00:24:50.056Z,0.00
2022-12-29T00:25:49.853Z,0.00
2022-12-29T00:26:50.164Z,0.00
2022-12-29T00:27:49.938Z,0.00
2022-12-29T00:28:49.481Z,0.00
2022-12-29T00:29:49.402Z,0.00
2022-12-29T00:30:49.485Z,0.00
2022-12-29T00:31:49.839Z,0.00
2022-12-29T00:32:50.096Z,0.00
2022-12-29T00:34:10.363Z,0.00
2022-12-29T00:34:48.902Z,0.00
2022-12-29T00:35:48.910Z,0.00
2022-12-29T00:36:49.835Z,0.00
2022-12-29T00:37:50.100Z,0.00
2022-12-29T00:38:49.972Z,0.00
2022-12-29T00:39:49.761Z,0.00
2022-12-29T00:40:50.066Z,0.00
2022-12-29T00:41:48.922Z,0.00
2022-12-29T00:42:48.916Z,0.00
2022-12-29T00:44:09.473Z,0.00
2022-12-29T00:44:49.827Z,0.00
2022-12-29T00:45:49.688Z,0.00
2022-12-29T00:46:50.059Z,0.00
2022-12-29T00:47:48.913Z,0.00
2022-12-29T00:48:49.608Z,0.00
2022-12-29T00:49:49.913Z,0.00
2022-12-29T00:50:49.705Z,0.00
2022-12-29T00:51:50.013Z,0.00
2022-12-29T00:52:49.831Z,0.00
2022-12-29T00:54:09.104Z,0.00
2022-12-29T00:54:49.931Z,0.00
2022-12-29T00:55:48.919Z,0.00
2022-12-29T00:56:49.526Z,0.00
2022-12-29T00:57:49.852Z,0.00
2022-12-29T00:58:49.653Z,0.00
2022-12-29T00:59:48.948Z,0.00
2022-12-29T01:00:49.909Z,0.00
2022-12-29T01:01:49.882Z,0.00
2022-12-29T01:02:49.626Z,0.00
2022-12-29T01:04:09.314Z,0.00
2022-12-29T01:04:49.587Z,0.00
2022-12-29T01:05:48.943Z,0.00
2022-12-29T01:06:49.692Z,0.00
2022-12-29T01:07:49.509Z,0.00
2022-12-29T01:08:49.807Z,0.00
2022-12-29T01:09:49.689Z,0.00
2022-12-29T01:10:48.699Z,0.00
2022-12-29T01:11:48.932Z,0.00
2022-12-29T01:12:49.585Z,0.00
2022-12-29T01:14:08.874Z,0.00
2022-12-29T01:14:49.653Z,0.00
2022-12-29T01:15:49.506Z,0.00
2022-12-29T01:16:48.953Z,0.00
2022-12-29T01:17:49.664Z,0.00
2022-12-29T01:18:49.462Z,0.00
2022-12-29T01:19:49.245Z,0.00
2022-12-29T01:20:49.064Z,0.00
2022-12-29T01:21:49.364Z,0.00
2022-12-29T01:22:48.456Z,0.00
2022-12-29T01:24:08.964Z,0.00
2022-12-29T01:24:49.294Z,0.00
2022-12-29T01:25:48.809Z,0.00
2022-12-29T01:26:49.397Z,0.00
2022-12-29T01:27:48.456Z,0.00
2022-12-29T01:28:48.451Z,0.00
2022-12-29T01:29:48.854Z,0.00
2022-12-29T01:30:49.207Z,0.00
2022-12-29T01:31:49.576Z,0.00
2022-12-29T01:32:49.343Z,0.00
2022-12-29T01:34:09.136Z,0.00
2022-12-29T01:34:49.414Z,0.00
2022-12-29T01:35:49.201Z,0.00
2022-12-29T01:36:49.526Z,0.00
2022-12-29T01:37:49.332Z,0.00
2022-12-29T01:38:49.115Z,0.00
2022-12-29T01:39:48.451Z,0.00
2022-12-29T01:40:48.432Z,0.00
2022-12-29T01:41:49.074Z,0.00
2022-12-29T01:42:49.379Z,0.00
2022-12-29T01:44:09.681Z,0.00
2022-12-29T01:44:48.450Z,0.00
2022-12-29T01:45:49.385Z,0.00
2022-12-29T01:46:49.093Z,0.00
2022-12-29T01:47:49.412Z,0.00
2022-12-29T01:48:49.255Z,0.00
2022-12-29T01:49:48.276Z,0.00
2022-12-29T01:50:48.470Z,0.00
2022-12-29T01:51:49.172Z,0.00
2022-12-29T01:52:48.991Z,0.00
2022-12-29T01:54:09.758Z,0.00
2022-12-29T01:54:49.055Z,0.00
2022-12-29T01:55:48.468Z,0.00
2022-12-29T01:56:49.212Z,0.00
2022-12-29T01:57:48.539Z,0.00
2022-12-29T01:58:49.322Z,0.00
2022-12-29T01:59:48.332Z,0.00
2022-12-29T02:00:48.534Z,0.00
2022-12-29T02:01:48.587Z,0.00
2022-12-29T02:02:48.701Z,0.00
2022-12-29T02:04:08.903Z,0.00
2022-12-29T02:04:49.223Z,0.00
2022-12-29T02:05:48.992Z,0.00
2022-12-29T02:06:47.974Z,0.00
2022-12-29T02:07:47.974Z,0.00
2022-12-29T02:08:48.918Z,0.00
2022-12-29T02:09:48.719Z,0.00
2022-12-29T02:10:49.024Z,0.00
2022-12-29T02:11:48.900Z,0.00
2022-12-29T02:12:47.886Z,0.00
2022-12-29T02:14:09.451Z,0.00
2022-12-29T02:14:48.782Z,0.00
2022-12-29T02:15:49.113Z,0.00
2022-12-29T02:16:49.019Z,0.00
2022-12-29T02:17:48.748Z,0.00
2022-12-29T02:18:48.602Z,0.00
2022-12-29T02:19:47.972Z,0.00
2022-12-29T02:20:48.713Z,0.00
2022-12-29T02:21:48.987Z,0.00
2022-12-29T02:22:48.803Z,0.00
2022-12-29T02:24:09.557Z,0.00
2022-12-29T02:24:48.861Z,0.00
2022-12-29T02:25:47.999Z,0.00
2022-12-29T02:26:48.969Z,0.00
2022-12-29T02:27:48.787Z,0.00
2022-12-29T02:28:48.583Z,0.00
2022-12-29T02:29:48.388Z,0.00
2022-12-29T02:30:48.744Z,0.00
2022-12-29T02:31:48.010Z,0.00
2022-12-29T02:32:48.894Z,0.00
2022-12-29T02:34:08.162Z,0.00
2022-12-29T02:34:48.983Z,0.00
2022-12-29T02:35:48.778Z,0.00
2022-12-29T02:36:47.983Z,0.00
2022-12-29T02:37:48.423Z,0.00
2022-12-29T02:38:48.746Z,0.00
2022-12-29T02:39:47.748Z,0.00
2022-12-29T02:40:48.831Z,0.00
2022-12-29T02:41:48.620Z,0.00
2022-12-29T02:42:47.987Z,0.00
2022-12-29T02:44:08.265Z,0.00
2022-12-29T02:44:48.544Z,0.00
2022-12-29T02:45:48.398Z,0.00
2022-12-29T02:46:48.177Z,0.00
2022-12-29T02:47:48.513Z,0.00
2022-12-29T02:48:47.988Z,0.00
2022-12-29T02:49:48.604Z,0.00
2022-12-29T02:50:48.446Z,0.00
2022-12-29T02:51:48.733Z,0.00
2022-12-29T02:52:47.755Z,0.00
2022-12-29T02:54:07.808Z,0.00
2022-12-29T02:54:48.585Z,0.00
2022-12-29T02:55:48.365Z,0.00
2022-12-29T02:56:48.672Z,0.00
2022-12-29T02:57:48.475Z,0.00
2022-12-29T02:58:47.101Z,0.00
2022-12-29T02:59:47.504Z,0.00
2022-12-29T03:00:48.469Z,0.00
2022-12-29T03:01:48.398Z,0.00
2022-12-29T03:02:48.691Z,0.00
2022-12-29T03:04:07.854Z,0.00
2022-12-29T03:04:47.500Z,0.00
2022-12-29T03:05:47.503Z,0.00
2022-12-29T03:06:48.241Z,0.00
2022-12-29T03:07:48.541Z,0.00
2022-12-29T03:08:48.318Z,0.00
2022-12-29T03:09:48.124Z,0.00
2022-12-29T03:10:47.508Z,0.00
2022-12-29T03:11:47.500Z,0.00
2022-12-29T03:12:48.488Z,0.00
2022-12-29T03:14:06.832Z,0.00
2022-12-29T03:14:48.059Z,0.00
2022-12-29T03:15:48.359Z,0.00
2022-12-29T03:16:47.549Z,0.00
2022-12-29T03:17:47.512Z,0.00
2022-12-29T03:18:48.336Z,0.00
2022-12-29T03:19:48.212Z,0.00
2022-12-29T03:20:47.243Z,0.00
2022-12-29T03:21:47.883Z,0.00
2022-12-29T03:22:47.505Z,0.00
2022-12-29T03:24:06.590Z,0.00
2022-12-29T03:24:48.317Z,0.00
2022-12-29T03:25:48.148Z,0.00
2022-12-29T03:26:47.984Z,0.00
2022-12-29T03:27:48.338Z,0.00
2022-12-29T03:28:47.509Z,0.00
2022-12-29T03:29:46.666Z,0.00
2022-12-29T03:30:47.959Z,0.00
2022-12-29T03:31:48.257Z,0.00
2022-12-29T03:32:48.095Z,0.00
2022-12-29T03:34:06.522Z,0.00
2022-12-29T03:34:48.213Z,0.00
2022-12-29T03:35:47.263Z,0.00
2022-12-29T03:36:47.425Z,0.00
2022-12-29T03:37:48.351Z,0.00
2022-12-29T03:38:48.169Z,0.00
2022-12-29T03:39:47.065Z,0.00
2022-12-29T03:40:47.351Z,0.00
2022-12-29T03:41:47.694Z,0.00
2022-12-29T03:42:47.995Z,0.00
2022-12-29T03:44:07.352Z,0.00
2022-12-29T03:44:48.118Z,0.00
2022-12-29T03:45:46.773Z,0.00
2022-12-29T03:46:47.863Z,0.00
2022-12-29T03:47:48.193Z,0.00
2022-12-29T03:48:47.217Z,0.00
2022-12-29T03:49:47.410Z,0.00
2022-12-29T03:50:47.758Z,0.00
2022-12-29T03:51:49.025Z,0.00
2022-12-29T03:52:47.948Z,0.00
2022-12-29T03:54:07.336Z,0.00
2022-12-29T03:54:47.551Z,0.00
2022-12-29T03:55:47.379Z,0.00
2022-12-29T03:56:47.676Z,0.00
2022-12-29T03:57:47.021Z,0.00
2022-12-29T03:58:47.768Z,0.00
2022-12-29T03:59:46.793Z,0.00
2022-12-29T04:00:46.541Z,0.00
2022-12-29T04:01:46.405Z,0.00
2022-12-29T04:02:47.737Z,0.00
2022-12-29T04:04:07.697Z,0.00
2022-12-29T04:04:47.629Z,0.00
2022-12-29T04:05:47.985Z,0.00
2022-12-29T04:06:47.765Z,0.00
2022-12-29T04:07:47.562Z,0.00
2022-12-29T04:08:47.423Z,0.00
2022-12-29T04:09:47.047Z,0.00
2022-12-29T04:10:47.496Z,0.00
2022-12-29T04:11:47.818Z,0.00
2022-12-29T04:12:47.713Z,0.00
2022-12-29T04:14:08.381Z,0.00
2022-12-29T04:14:47.029Z,0.00
2022-12-29T04:15:46.146Z,0.00
2022-12-29T04:16:47.816Z,0.00
2022-12-29T04:17:47.639Z,0.00
2022-12-29T04:18:47.432Z,0.00
2022-12-29T04:19:47.730Z,0.00
2022-12-29T04:20:46.543Z,0.00
2022-12-29T04:21:47.397Z,0.00
2022-12-29T04:22:47.711Z,0.00
2022-12-29T04:24:07.501Z,0.00
2022-12-29T04:24:46.972Z,0.00
2022-12-29T04:25:47.606Z,0.00
2022-12-29T04:26:46.548Z,0.00
2022-12-29T04:27:47.711Z,0.00
2022-12-29T04:28:46.062Z,0.00
2022-12-29T04:29:47.357Z,0.00
2022-12-29T04:30:47.726Z,0.00
2022-12-29T04:31:46.163Z,0.00
2022-12-29T04:32:46.620Z,0.00
2022-12-29T04:34:07.545Z,0.00
2022-12-29T04:34:47.357Z,0.00
2022-12-29T04:35:47.160Z,0.00
2022-12-29T04:36:47.016Z,0.00
2022-12-29T04:37:46.555Z,0.00
2022-12-29T04:38:46.567Z,0.00
2022-12-29T04:39:47.496Z,0.00
2022-12-29T04:40:47.314Z,0.00
2022-12-29T04:41:47.112Z,0.00
2022-12-29T04:42:47.398Z,0.00
2022-12-29T04:44:07.084Z,0.00
2022-12-29T04:44:47.497Z,0.00
2022-12-29T04:45:47.293Z,0.00
2022-12-29T04:46:45.872Z,0.00
2022-12-29T04:47:47.496Z,0.00
2022-12-29T04:48:47.296Z,0.00
2022-12-29T04:49:46.304Z,0.00
2022-12-29T04:50:47.391Z,0.00
2022-12-29T04:51:47.239Z,0.00
2022-12-29T04:52:47.014Z,0.00
2022-12-29T04:54:07.796Z,0.00
2022-12-29T04:54:46.579Z,0.00
2022-12-29T04:55:46.567Z,0.00
2022-12-29T04:56:47.244Z,0.00
2022-12-29T04:57:47.016Z,0.00
2022-12-29T04:58:47.331Z,0.00
2022-12-29T04:59:47.139Z,0.00
2022-12-29T05:00:46.064Z,0.00
2022-12-29T05:01:47.325Z,0.00
2022-12-29T05:02:46.432Z,0.00
2022-12-29T05:04:05.480Z,0.00
2022-12-29T05:04:47.216Z,0.00
2022-12-29T05:05:47.005Z,0.00
2022-12-29T05:06:46.079Z,0.00
2022-12-29T05:07:46.094Z,0.00
2022-12-29T05:08:46.937Z,0.00
2022-12-29T05:09:47.252Z,0.00
2022-12-29T05:10:47.063Z,0.00
2022-12-29T05:11:46.838Z,0.00
2022-12-29T05:12:47.162Z,0.00
2022-12-29T05:14:06.798Z,0.00
2022-12-29T05:14:46.694Z,0.00
2022-12-29T05:15:47.025Z,0.00
2022-12-29T05:16:46.788Z,0.00
2022-12-29T05:17:46.303Z,0.00
2022-12-29T05:18:46.955Z,0.00
2022-12-29T05:19:46.722Z,0.00
2022-12-29T05:20:47.067Z,0.00
2022-12-29T05:21:46.837Z,0.00
2022-12-29T05:22:46.643Z,0.00
2022-12-29T05:24:06.421Z,0.00
2022-12-29T05:24:46.690Z,0.00
2022-12-29T05:25:46.146Z,0.00
2022-12-29T05:26:46.326Z,0.00
2022-12-29T05:27:46.615Z,0.00
2022-12-29T05:28:46.915Z,0.00
2022-12-29T05:29:46.722Z,0.00
2022-12-29T05:30:47.004Z,0.00
2022-12-29T05:31:46.132Z,0.00
2022-12-29T05:32:45.840Z,0.00
2022-12-29T05:34:05.453Z,0.00
2022-12-29T05:34:46.161Z,0.00
2022-12-29T05:35:46.462Z,0.00
2022-12-29T05:36:46.119Z,0.00
2022-12-29T05:37:46.550Z,0.00
2022-12-29T05:38:46.880Z,0.00
2022-12-29T05:39:46.665Z,0.00
2022-12-29T05:40:46.497Z,0.00
2022-12-29T05:41:45.997Z,0.00
2022-12-29T05:42:46.135Z,0.00
2022-12-29T05:44:05.465Z,0.00
2022-12-29T05:44:46.730Z,0.00
2022-12-29T05:45:46.530Z,0.00
2022-12-29T05:46:46.895Z,0.00
2022-12-29T05:47:45.622Z,0.00
2022-12-29T05:48:46.425Z,0.00
2022-12-29T05:49:46.822Z,0.00
2022-12-29T05:50:46.588Z,0.00
2022-12-29T05:51:45.615Z,0.00
2022-12-29T05:52:46.670Z,0.00
2022-12-29T05:54:05.009Z,0.00
2022-12-29T05:54:46.768Z,0.00
2022-12-29T05:55:48.634Z,0.00
2022-12-29T05:56:45.869Z,0.00
2022-12-29T05:57:46.200Z,0.00
2022-12-29T05:58:46.487Z,0.00
2022-12-29T05:59:45.627Z,0.00
2022-12-29T06:00:46.576Z,0.00
2022-12-29T06:01:46.624Z,0.00
2022-12-29T06:02:46.945Z,0.00
2022-12-29T06:04:05.033Z,0.00
2022-12-29T06:04:45.340Z,0.00
2022-12-29T06:05:45.792Z,0.00
2022-12-29T06:06:46.373Z,0.00
2022-12-29T06:07:46.182Z,0.00
2022-12-29T06:08:46.519Z,0.00
2022-12-29T06:09:46.322Z,0.00
2022-12-29T06:10:45.623Z,0.00
2022-12-29T06:11:46.474Z,0.00
2022-12-29T06:12:46.297Z,0.00
2022-12-29T06:14:05.159Z,0.00
2022-12-29T06:14:46.345Z,0.00
2022-12-29T06:15:45.660Z,0.00
2022-12-29T06:16:45.659Z,0.00
2022-12-29T06:17:46.243Z,0.00
2022-12-29T06:18:45.248Z,0.00
2022-12-29T06:19:46.337Z,0.00
2022-12-29T06:20:44.848Z,0.00
2022-12-29T06:21:45.631Z,0.00
2022-12-29T06:22:45.509Z,0.00
2022-12-29T06:24:04.643Z,0.00
2022-12-29T06:24:46.333Z,0.00
2022-12-29T06:25:46.190Z,0.00
2022-12-29T06:26:45.988Z,0.00
2022-12-29T06:27:45.639Z,0.00
2022-12-29T06:28:46.107Z,0.00
2022-12-29T06:29:46.415Z,0.00
2022-12-29T06:30:46.251Z,0.00
2022-12-29T06:31:46.055Z,0.00
2022-12-29T06:32:46.327Z,0.00
2022-12-29T06:34:08.247Z,0.00
2022-12-29T06:34:45.408Z,0.00
2022-12-29T06:35:46.279Z,0.00
2022-12-29T06:36:46.059Z,0.00
2022-12-29T06:37:45.861Z,0.00
2022-12-29T06:38:46.188Z,0.00
2022-12-29T06:39:45.149Z,0.00
2022-12-29T06:40:46.425Z,0.00
2022-12-29T06:41:46.063Z,0.00
2022-12-29T06:42:45.841Z,0.00
2022-12-29T06:44:04.700Z,0.00
2022-12-29T06:44:45.886Z,0.00
2022-12-29T06:45:45.215Z,0.00
2022-12-29T06:46:46.032Z,0.00
2022-12-29T06:47:45.036Z,0.00
2022-12-29T06:48:46.106Z,0.00
2022-12-29T06:49:45.921Z,0.00
2022-12-29T06:50:46.202Z,0.00
2022-12-29T06:51:45.183Z,0.00
2022-12-29T06:52:45.895Z,0.00
2022-12-29T06:54:04.733Z,0.00
2022-12-29T06:54:45.950Z,0.00
2022-12-29T06:55:45.715Z,0.00
2022-12-29T06:56:46.040Z,0.00
2022-12-29T06:57:45.159Z,1.00
2022-12-29T06:58:45.627Z,1.00
2022-12-29T06:59:45.167Z,1.00
2022-12-29T07:00:45.807Z,1.00
2022-12-29T07:01:46.197Z,1.00
2022-12-29T07:02:43.772Z,1.00
2022-12-29T07:04:04.395Z,2.00
2022-12-29T07:04:44.132Z,2.00
2022-12-29T07:05:43.594Z,2.00
2022-12-29T07:06:43.696Z,4.00
2022-12-29T07:07:44.982Z,0.00
2022-12-29T07:08:44.983Z,4.00
2022-12-29T07:09:43.569Z,2.00
2022-12-29T07:10:44.973Z,6.00
2022-12-29T07:11:43.840Z,6.00
2022-12-29T07:12:44.213Z,5.00
2022-12-29T07:14:05.011Z,9.00
2022-12-29T07:14:43.824Z,15.00
2022-12-29T07:15:43.473Z,9.00
2022-12-29T07:16:43.559Z,7.00
2022-12-29T07:17:43.442Z,20.00
2022-12-29T07:18:43.929Z,6.00
2022-12-29T07:19:44.879Z,14.00
2022-12-29T07:20:44.189Z,18.00
2022-12-29T07:21:49.968Z,14.00
2022-12-29T07:22:44.191Z,14.00
2022-12-29T07:24:05.477Z,18.00
2022-12-29T07:24:44.251Z,13.00
2022-12-29T07:25:43.982Z,7.00
2022-12-29T07:26:44.237Z,9.00
2022-12-29T07:27:43.964Z,9.00
2022-12-29T07:28:44.223Z,9.00
2022-12-29T07:29:43.985Z,11.00
2022-12-29T07:30:44.209Z,18.00
2022-12-29T07:31:44.020Z,19.00
2022-12-29T07:32:44.256Z,30.00
2022-12-29T07:34:04.706Z,25.00
2022-12-29T07:34:44.027Z,37.00
2022-12-29T07:35:44.072Z,33.00
2022-12-29T07:36:43.814Z,39.00
2022-12-29T07:37:44.157Z,33.00
2022-12-29T07:38:44.679Z,42.00
2022-12-29T07:39:45.669Z,29.00
2022-12-29T07:40:45.476Z,46.00
2022-12-29T07:41:45.330Z,64.00
2022-12-29T07:42:44.816Z,81.00
2022-12-29T07:44:03.960Z,122.00
2022-12-29T07:44:45.147Z,125.00
2022-12-29T07:45:45.577Z,125.00
2022-12-29T07:46:56.061Z,127.00
2022-12-29T07:47:46.592Z,134.00
2022-12-29T07:48:45.445Z,129.00
2022-12-29T07:49:45.318Z,122.00
2022-12-29T07:50:45.184Z,122.00
2022-12-29T07:51:45.455Z,144.00
2022-12-29T07:52:45.320Z,186.00
2022-12-29T07:54:03.653Z,318.00
2022-12-29T07:54:44.590Z,384.00
2022-12-29T07:55:44.685Z,460.00
2022-12-29T07:56:45.104Z,480.00
2022-12-29T07:57:45.462Z,519.00
2022-12-29T07:58:45.325Z,545.00
2022-12-29T07:59:45.138Z,561.00
2022-12-29T08:00:44.196Z,601.00
2022-12-29T08:01:44.295Z,662.00
2022-12-29T08:02:45.149Z,708.00
2022-12-29T08:04:04.013Z,789.00
2022-12-29T08:04:44.397Z,810.00
2022-12-29T08:05:44.507Z,838.00
2022-12-29T08:06:45.369Z,855.00
2022-12-29T08:07:44.200Z,803.00
2022-12-29T08:08:44.619Z,751.00
2022-12-29T08:09:44.960Z,691.00
2022-12-29T08:10:43.874Z,643.00
2022-12-29T08:11:43.565Z,485.00
2022-12-29T08:12:43.836Z,358.00
2022-12-29T08:14:03.600Z,361.00
2022-12-29T08:14:43.842Z,363.00
2022-12-29T08:15:43.634Z,331.00
2022-12-29T08:16:43.379Z,335.00
2022-12-29T08:17:43.580Z,353.00
2022-12-29T08:18:43.332Z,375.00
2022-12-29T08:19:43.636Z,384.00
2022-12-29T08:20:43.331Z,375.00
2022-12-29T08:21:43.629Z,342.00
2022-12-29T08:22:43.372Z,349.00
2022-12-29T08:24:04.651Z,392.00
2022-12-29T08:24:43.381Z,458.00
2022-12-29T08:25:43.604Z,498.00
2022-12-29T08:26:43.384Z,572.00
2022-12-29T08:27:43.633Z,543.00
2022-12-29T08:28:43.408Z,573.00
2022-12-29T08:29:43.623Z,622.00
2022-12-29T08:30:44.299Z,673.00
2022-12-29T08:31:43.672Z,844.00
2022-12-29T08:32:44.860Z,1047.00
2022-12-29T08:34:03.685Z,1392.00
2022-12-29T08:34:43.434Z,1456.00
2022-12-29T08:35:43.190Z,1229.00
2022-12-29T08:36:43.442Z,983.00
2022-12-29T08:37:43.193Z,1293.00
2022-12-29T08:38:43.428Z,1663.00
2022-12-29T08:39:43.188Z,1783.00
2022-12-29T08:40:43.429Z,1770.00
2022-12-29T08:41:43.203Z,1574.00
2022-12-29T08:42:43.449Z,1450.00
2022-12-29T08:44:04.717Z,1436.00
2022-12-29T08:44:43.025Z,1481.00
2022-12-29T08:45:43.280Z,1523.00
2022-12-29T08:46:43.068Z,1511.00
2022-12-29T08:47:43.280Z,1410.00
2022-12-29T08:48:44.513Z,1111.00
2022-12-29T08:49:43.316Z,931.00
2022-12-29T08:50:43.093Z,1132.00
2022-12-29T08:51:43.354Z,1341.00
2022-12-29T08:52:44.566Z,1525.00
2022-12-29T08:54:03.753Z,1518.00
2022-12-29T08:54:43.192Z,1383.00
2022-12-29T08:55:42.950Z,1205.00
2022-12-29T08:56:43.190Z,1041.00
2022-12-29T08:57:42.951Z,1102.00
2022-12-29T08:58:43.195Z,1090.00
2022-12-29T08:59:43.952Z,1020.00
2022-12-29T09:00:44.719Z,1130.00
2022-12-29T09:01:44.611Z,1255.00
2022-12-29T09:02:44.953Z,1400.00
2022-12-29T09:04:18.818Z,1309.00
2022-12-29T09:04:44.771Z,1419.00
2022-12-29T09:05:44.656Z,1544.00
2022-12-29T09:06:43.655Z,1677.00
2022-12-29T09:07:43.293Z,1959.00
2022-12-29T09:08:43.704Z,1938.00
2022-12-29T09:09:43.717Z,1680.00
2022-12-29T09:10:42.766Z,2197.00
2022-12-29T09:11:44.578Z,2831.00
2022-12-29T09:12:44.309Z,2915.00
2022-12-29T09:14:03.167Z,3144.00
2022-12-29T09:14:44.336Z,2805.00
2022-12-29T09:15:43.796Z,3459.00
2022-12-29T09:16:43.738Z,4594.00
2022-12-29T09:17:44.159Z,5726.00
2022-12-29T09:18:44.497Z,4729.00
2022-12-29T09:19:44.407Z,9444.00
2022-12-29T09:20:43.399Z,4601.00
2022-12-29T09:21:44.475Z,7754.00
2022-12-29T09:22:44.289Z,5079.00
2022-12-29T09:24:03.115Z,5257.00
2022-12-29T09:24:44.349Z,4275.00
2022-12-29T09:25:43.711Z,3709.00
2022-12-29T09:26:47.120Z,2106.00
2022-12-29T09:27:43.820Z,1522.00
2022-12-29T09:28:44.194Z,1237.00
2022-12-29T09:29:44.024Z,1079.00
2022-12-29T09:30:44.371Z,1081.00
2022-12-29T09:31:44.264Z,1365.00
2022-12-29T09:32:45.897Z,1894.00
2022-12-29T09:34:02.922Z,2881.00
2022-12-29T09:34:44.136Z,2667.00
2022-12-29T09:35:44.493Z,2313.00
2022-12-29T09:36:44.277Z,1615.00
2022-12-29T09:37:43.616Z,1339.00
2022-12-29T09:38:44.446Z,1090.00
2022-12-29T09:39:44.710Z,924.00
2022-12-29T09:40:44.135Z,953.00
2022-12-29T09:41:42.706Z,769.00
2022-12-29T09:42:43.800Z,868.00
2022-12-29T09:44:02.632Z,736.00
2022-12-29T09:44:43.874Z,765.00
2022-12-29T09:45:43.265Z,718.00
2022-12-29T09:46:44.154Z,814.00
2022-12-29T09:47:43.490Z,650.00
2022-12-29T09:48:44.288Z,749.00
2022-12-29T09:49:44.081Z,608.00
2022-12-29T09:50:43.967Z,674.00
2022-12-29T09:51:43.283Z,570.00
2022-12-29T09:52:44.134Z,582.00
2022-12-29T09:54:02.441Z,638.00
2022-12-29T09:54:48.213Z,619.00
2022-12-29T09:55:45.014Z,665.00
2022-12-29T09:56:42.334Z,730.00
2022-12-29T09:57:42.699Z,824.00
2022-12-29T09:58:42.381Z,795.00
2022-12-29T09:59:42.610Z,939.00
2022-12-29T10:00:42.435Z,748.00
2022-12-29T10:01:42.816Z,662.00
2022-12-29T10:02:42.700Z,741.00
2022-12-29T10:04:04.150Z,689.00
2022-12-29T10:04:42.439Z,613.00
2022-12-29T10:05:42.185Z,661.00
2022-12-29T10:07:28.042Z,750.00
2022-12-29T10:07:42.651Z,797.00
2022-12-29T10:08:42.411Z,701.00
2022-12-29T10:09:42.667Z,801.00
2022-12-29T10:10:42.423Z,942.00
2022-12-29T10:11:42.141Z,793.00
2022-12-29T10:12:42.486Z,765.00
2022-12-29T10:14:03.741Z,636.00
2022-12-29T10:14:42.564Z,709.00
2022-12-29T10:15:42.343Z,662.00
2022-12-29T10:16:42.143Z,738.00
2022-12-29T10:17:42.331Z,690.00
2022-12-29T10:18:42.088Z,755.00
2022-12-29T10:19:42.340Z,965.00
2022-12-29T10:20:42.118Z,930.00
2022-12-29T10:21:42.359Z,871.00
2022-12-29T10:22:42.140Z,1235.00
2022-12-29T10:24:03.864Z,1541.00
2022-12-29T10:24:42.208Z,1296.00
2022-12-29T10:25:42.451Z,1102.00
2022-12-29T10:26:42.252Z,1148.00
2022-12-29T10:27:41.999Z,1083.00
2022-12-29T10:28:42.272Z,1164.00
2022-12-29T10:29:42.007Z,1332.00
2022-12-29T10:30:42.270Z,1719.00
2022-12-29T10:31:42.085Z,2129.00
2022-12-29T10:32:42.278Z,5037.00
2022-12-29T10:34:03.491Z,4079.00
2022-12-29T10:34:42.327Z,2328.00
2022-12-29T10:35:42.069Z,1485.00
2022-12-29T10:36:43.893Z,2334.00
2022-12-29T10:37:42.800Z,1518.00
2022-12-29T10:38:42.827Z,1038.00
2022-12-29T10:39:43.288Z,1144.00
2022-12-29T10:40:43.156Z,1272.00
2022-12-29T10:41:43.462Z,1553.00
2022-12-29T10:42:43.336Z,1518.00
2022-12-29T10:44:02.149Z,1310.00
2022-12-29T10:44:43.392Z,1153.00
2022-12-29T10:45:43.696Z,1569.00
2022-12-29T10:46:43.482Z,2376.00
2022-12-29T10:47:43.292Z,2967.00
2022-12-29T10:48:42.809Z,9734.00
2022-12-29T10:49:42.814Z,5555.00
2022-12-29T10:50:43.400Z,3878.00
2022-12-29T10:51:43.256Z,2080.00
2022-12-29T10:52:43.060Z,1748.00
2022-12-29T10:54:02.036Z,2668.00
2022-12-29T10:54:43.251Z,3137.00
2022-12-29T10:55:42.828Z,4432.00
2022-12-29T10:56:43.413Z,3532.00
2022-12-29T10:57:43.274Z,3201.00
2022-12-29T10:58:48.080Z,3230.00
2022-12-29T10:59:44.544Z,2390.00
2022-12-29T11:00:43.237Z,2175.00
2022-12-29T11:01:42.547Z,1706.00
2022-12-29T11:02:43.612Z,1642.00
2022-12-29T11:04:01.838Z,1924.00
2022-12-29T11:04:43.052Z,2057.00
2022-12-29T11:05:43.427Z,2252.00
2022-12-29T11:06:41.750Z,2924.00
2022-12-29T11:07:42.021Z,3595.00
2022-12-29T11:08:42.019Z,2227.00
2022-12-29T11:09:43.216Z,2887.00
2022-12-29T11:10:41.849Z,2158.00
2022-12-29T11:11:41.537Z,2028.00
2022-12-29T11:12:41.974Z,1977.00
2022-12-29T11:14:01.594Z,1992.00
2022-12-29T11:14:41.970Z,2252.00
2022-12-29T11:15:41.628Z,2670.00
2022-12-29T11:16:42.094Z,2279.00
2022-12-29T11:17:41.629Z,2169.00
2022-12-29T11:18:41.986Z,1908.00
2022-12-29T11:19:42.324Z,2244.00
2022-12-29T11:20:41.383Z,4184.00
2022-12-29T11:21:41.651Z,5058.00
2022-12-29T11:22:41.384Z,5237.00
2022-12-29T11:24:01.693Z,6146.00
2022-12-29T11:24:41.410Z,4621.00
2022-12-29T11:25:41.684Z,2830.00
2022-12-29T11:26:41.432Z,4611.00
2022-12-29T11:27:41.707Z,5339.00
2022-12-29T11:28:41.456Z,5744.00
2022-12-29T11:29:41.701Z,3792.00
2022-12-29T11:30:41.446Z,3953.00
2022-12-29T11:31:41.745Z,11034.00
2022-12-29T11:32:41.448Z,7897.00
2022-12-29T11:34:01.753Z,6442.00
2022-12-29T11:34:41.497Z,5249.00
2022-12-29T11:35:41.261Z,4546.00
2022-12-29T11:36:41.509Z,4831.00
2022-12-29T11:37:41.290Z,4894.00
2022-12-29T11:38:41.525Z,5527.00
2022-12-29T11:39:41.294Z,5362.00
2022-12-29T11:40:42.570Z,5944.00
2022-12-29T11:41:41.482Z,5020.00
2022-12-29T11:42:41.832Z,4065.00
2022-12-29T11:44:01.859Z,4364.00
2022-12-29T11:44:42.880Z,6303.00
2022-12-29T11:45:42.672Z,6054.00
2022-12-29T11:46:42.502Z,3517.00
2022-12-29T11:47:41.840Z,3471.00
2022-12-29T11:48:42.491Z,6016.00
2022-12-29T11:49:42.410Z,5629.00
2022-12-29T11:50:42.724Z,4619.00
2022-12-29T11:51:42.226Z,4614.00
2022-12-29T11:52:42.948Z,4870.00
2022-12-29T11:54:01.313Z,4475.00
2022-12-29T11:54:42.594Z,3978.00
2022-12-29T11:55:41.528Z,3739.00
2022-12-29T11:56:41.703Z,3529.00
2022-12-29T11:57:41.048Z,3182.00
2022-12-29T11:58:41.332Z,3239.00
2022-12-29T11:59:41.103Z,3258.00
2022-12-29T12:00:41.374Z,2838.00
2022-12-29T12:01:41.121Z,2895.00
2022-12-29T12:02:43.251Z,3093.00
2022-12-29T12:04:02.715Z,4224.00
2022-12-29T12:04:40.906Z,4089.00
2022-12-29T12:05:41.507Z,3594.00
2022-12-29T12:06:40.966Z,3592.00
2022-12-29T12:07:41.229Z,3591.00
2022-12-29T12:08:40.959Z,3667.00
2022-12-29T12:09:41.358Z,4286.00
2022-12-29T12:10:41.848Z,5643.00
2022-12-29T12:11:41.068Z,5464.00
2022-12-29T12:12:42.012Z,5489.00
2022-12-29T12:14:02.118Z,4657.00
2022-12-29T12:14:40.896Z,4746.00
2022-12-29T12:15:46.751Z,4468.00
2022-12-29T12:16:42.814Z,3883.00
2022-12-29T12:17:41.209Z,3681.00
2022-12-29T12:18:42.443Z,3437.00
2022-12-29T12:19:41.247Z,3393.00
2022-12-29T12:20:41.007Z,3178.00
2022-12-29T12:21:45.361Z,2901.00
2022-12-29T12:22:42.364Z,2992.00
2022-12-29T12:24:02.295Z,2852.00
2022-12-29T12:24:41.074Z,2822.00
2022-12-29T12:25:40.883Z,2591.00
2022-12-29T12:26:41.118Z,2410.00
2022-12-29T12:27:42.347Z,2499.00
2022-12-29T12:28:41.155Z,2456.00
2022-12-29T12:29:40.936Z,2243.00
2022-12-29T12:30:40.687Z,2230.00
2022-12-29T12:31:40.954Z,2413.00
2022-12-29T12:32:40.691Z,2460.00
2022-12-29T12:34:01.392Z,2226.00
2022-12-29T12:34:40.796Z,2471.00
2022-12-29T12:35:41.058Z,2264.00
2022-12-29T12:36:40.801Z,1789.00
2022-12-29T12:37:41.108Z,1436.00
2022-12-29T12:38:40.832Z,1168.00
2022-12-29T12:39:42.561Z,911.00
2022-12-29T12:40:40.865Z,991.00
2022-12-29T12:41:40.645Z,1454.00
2022-12-29T12:42:40.893Z,3211.00
2022-12-29T12:44:02.207Z,2819.00
2022-12-29T12:44:40.985Z,2221.00
2022-12-29T12:45:40.776Z,1584.00
2022-12-29T12:46:40.538Z,1067.00
2022-12-29T12:47:40.777Z,1011.00
2022-12-29T12:48:40.536Z,1114.00
2022-12-29T12:49:40.801Z,1063.00
2022-12-29T12:50:40.636Z,991.00